Time;durP1;ratioP1;P1;durP2;ratioP2;P2;SDS_P1;SDS_P2;PMS_P1;PMS_P2;Temp;Humidity;BMP_temperature;BMP_pressure;BME280_temperature;BME280_humidity;BME280_pressure;Samples;Min_cycle;Max_cycle;Signal;HPM_P1;HPM_P2
2021/05/28 00:01:42;;;;;;;8.50;6.70;;;10.70;99.80;;;;;;5028882;28;20496;-84
2021/05/28 00:04:10;;;;;;;10.17;8.30;;;10.70;99.80;;;;;;5047310;28;20468;-84
2021/05/28 00:06:37;;;;;;;9.70;7.20;;;10.70;99.80;;;;;;5043654;28;20532;-84
2021/05/28 00:09:06;;;;;;;12.93;7.97;;;10.70;99.80;;;;;;5044942;28;20470;-84
2021/05/28 00:11:33;;;;;;;10.77;7.50;;;10.70;99.80;;;;;;5036797;28;20482;-84
2021/05/28 00:14:01;;;;;;;10.50;7.60;;;10.70;99.80;;;;;;5036976;28;20969;-84
2021/05/28 00:16:29;;;;;;;10.10;7.63;;;10.70;99.80;;;;;;5041662;28;20853;-84
2021/05/28 00:18:57;;;;;;;10.90;7.13;;;10.70;99.80;;;;;;5044378;28;20478;-85
2021/05/28 00:21:24;;;;;;;13.40;8.60;;;10.70;99.80;;;;;;5031822;28;20472;-85
2021/05/28 00:23:52;;;;;;;11.03;8.50;;;10.70;99.80;;;;;;5053746;28;20994;-84
2021/05/28 00:26:19;;;;;;;14.97;7.67;;;10.70;99.80;;;;;;5036662;28;20474;-85
2021/05/28 00:28:49;;;;;;;15.30;8.03;;;10.70;99.80;;;;;;5035068;28;20987;-84
2021/05/28 00:31:17;;;;;;;11.87;8.40;;;10.70;99.80;;;;;;5030784;28;20478;-84
2021/05/28 00:33:44;;;;;;;18.03;8.70;;;10.70;99.80;;;;;;5029975;28;20830;-84
2021/05/28 00:36:13;;;;;;;14.13;8.10;;;10.70;99.80;;;;;;5033139;28;20499;-84
2021/05/28 00:38:40;;;;;;;12.50;7.97;;;10.70;99.80;;;;;;5039189;28;20480;-84
2021/05/28 00:41:08;;;;;;;11.80;8.90;;;10.80;99.80;;;;;;5027545;28;20463;-84
2021/05/28 00:43:35;;;;;;;11.80;8.50;;;10.80;99.80;;;;;;5033056;28;20468;-84
2021/05/28 00:46:03;;;;;;;12.57;8.50;;;10.80;99.80;;;;;;5037586;28;20478;-84
2021/05/28 00:48:30;;;;;;;13.07;8.47;;;10.80;99.80;;;;;;5047479;28;20477;-84
2021/05/28 00:50:58;;;;;;;11.60;9.57;;;10.80;99.80;;;;;;5045510;28;21290;-84
2021/05/28 00:53:28;;;;;;;12.93;8.50;;;10.80;99.80;;;;;;5039075;28;20900;-85
2021/05/28 00:55:57;;;;;;;13.77;9.10;;;10.80;99.80;;;;;;5047643;28;20469;-84
2021/05/28 00:58:25;;;;;;;13.50;8.87;;;10.70;99.80;;;;;;5035170;28;20468;-84
2021/05/28 01:00:53;;;;;;;13.00;8.03;;;10.70;99.80;;;;;;5041281;28;20511;-84
2021/05/28 01:03:20;;;;;;;11.50;7.80;;;10.80;99.80;;;;;;5050123;28;20464;-84
2021/05/28 01:05:48;;;;;;;18.40;10.60;;;10.70;99.80;;;;;;5041596;28;20472;-84
2021/05/28 01:08:16;;;;;;;11.63;8.03;;;10.80;99.80;;;;;;5043158;28;20489;-84
2021/05/28 01:10:44;;;;;;;13.13;10.67;;;10.70;99.80;;;;;;5024786;28;20500;-84
2021/05/28 01:13:12;;;;;;;13.57;9.17;;;10.80;99.80;;;;;;5023562;28;20932;-84
2021/05/28 01:15:40;;;;;;;13.50;8.23;;;10.70;99.80;;;;;;5030878;28;20482;-84
2021/05/28 01:18:09;;;;;;;12.20;8.77;;;10.70;99.80;;;;;;5043348;28;20474;-84
2021/05/28 01:20:37;;;;;;;13.73;9.67;;;10.70;99.80;;;;;;5049149;28;20854;-84
2021/05/28 01:23:06;;;;;;;13.37;8.57;;;10.70;99.80;;;;;;5063424;28;20455;-84
2021/05/28 01:25:33;;;;;;;14.10;10.47;;;10.70;99.80;;;;;;5057369;28;21024;-84
2021/05/28 01:28:01;;;;;;;14.47;9.93;;;10.80;99.80;;;;;;5061417;28;20523;-84
2021/05/28 01:30:29;;;;;;;15.00;9.80;;;10.80;99.80;;;;;;5064624;28;20471;-85
2021/05/28 01:32:56;;;;;;;17.50;10.20;;;10.70;99.80;;;;;;5061926;28;20481;-84
2021/05/28 01:35:26;;;;;;;14.97;9.27;;;10.70;99.80;;;;;;5068905;28;20587;-84
2021/05/28 01:37:53;;;;;;;16.07;10.20;;;10.70;99.80;;;;;;5081685;28;20489;-84
2021/05/28 01:40:23;;;;;;;15.13;10.37;;;10.70;99.80;;;;;;5077273;28;20472;-84
2021/05/28 01:42:51;;;;;;;22.77;9.70;;;10.70;99.80;;;;;;5073610;28;20471;-84
2021/05/28 01:45:19;;;;;;;18.83;11.13;;;10.70;99.80;;;;;;5074809;28;20549;-84
2021/05/28 01:47:46;;;;;;;12.63;9.80;;;10.70;99.80;;;;;;5040871;28;20481;-84
2021/05/28 01:50:15;;;;;;;12.03;8.57;;;10.70;99.80;;;;;;5045427;28;21027;-84
2021/05/28 01:52:42;;;;;;;15.60;9.50;;;10.70;99.80;;;;;;5045357;28;20464;-84
2021/05/28 01:55:13;;;;;;;12.27;9.53;;;10.70;99.80;;;;;;5047496;28;20475;-84
2021/05/28 01:57:42;;;;;;;13.43;9.30;;;10.70;99.80;;;;;;5040849;28;20481;-84
2021/05/28 02:00:12;;;;;;;11.30;8.50;;;10.70;99.80;;;;;;5013399;28;20468;-84
2021/05/28 02:02:39;;;;;;;16.87;9.17;;;10.70;99.80;;;;;;5056778;28;20447;-84
2021/05/28 02:05:09;;;;;;;16.30;11.50;;;10.70;99.80;;;;;;5051316;28;20439;-84
2021/05/28 02:07:38;;;;;;;13.70;9.67;;;10.70;99.80;;;;;;5050961;28;20469;-84
2021/05/28 02:10:06;;;;;;;15.43;9.77;;;10.70;99.80;;;;;;5051045;28;20441;-84
2021/05/28 02:12:34;;;;;;;16.93;9.33;;;10.70;99.80;;;;;;5048451;28;20451;-84
2021/05/28 02:15:03;;;;;;;17.20;9.97;;;10.70;99.80;;;;;;5031085;28;20484;-84
2021/05/28 02:17:30;;;;;;;21.00;10.27;;;10.70;99.80;;;;;;5031083;28;20466;-84
2021/05/28 02:19:58;;;;;;;17.47;10.50;;;10.70;99.80;;;;;;5000399;28;20477;-84
2021/05/28 02:22:26;;;;;;;17.23;10.80;;;10.70;99.80;;;;;;5014669;28;20854;-84
2021/05/28 02:24:53;;;;;;;15.67;9.83;;;10.70;99.80;;;;;;5010647;28;20859;-84
2021/05/28 02:27:21;;;;;;;16.87;10.83;;;10.70;99.80;;;;;;5016451;28;20483;-84
2021/05/28 02:29:51;;;;;;;18.30;9.80;;;10.70;99.80;;;;;;5017655;28;20460;-84
2021/05/28 02:32:19;;;;;;;17.63;9.70;;;10.70;99.80;;;;;;5032864;28;20489;-84
2021/05/28 02:34:47;;;;;;;12.03;9.20;;;10.70;99.80;;;;;;5044063;28;20471;-84
2021/05/28 02:37:14;;;;;;;17.10;9.83;;;10.70;99.80;;;;;;5024962;28;20472;-85
2021/05/28 02:39:42;;;;;;;18.07;10.80;;;10.70;99.80;;;;;;5035766;28;20497;-84
2021/05/28 02:42:10;;;;;;;13.23;9.87;;;10.70;99.80;;;;;;5036677;28;20481;-84
2021/05/28 02:44:38;;;;;;;16.30;10.93;;;10.70;99.80;;;;;;5042054;28;20476;-84
2021/05/28 02:47:06;;;;;;;17.30;11.33;;;10.70;99.80;;;;;;5033342;28;20478;-84
2021/05/28 02:49:35;;;;;;;16.60;11.77;;;10.60;99.80;;;;;;5039818;28;20477;-84
2021/05/28 02:52:04;;;;;;;18.77;11.90;;;10.60;99.80;;;;;;5036904;28;20468;-84
2021/05/28 02:54:31;;;;;;;16.70;10.73;;;10.60;99.80;;;;;;5038989;28;20465;-84
2021/05/28 02:56:59;;;;;;;17.13;11.07;;;10.60;99.80;;;;;;5040784;28;20483;-84
2021/05/28 02:59:26;;;;;;;17.50;11.90;;;10.50;99.80;;;;;;5048663;28;20509;-84
2021/05/28 03:01:54;;;;;;;17.07;10.80;;;10.50;99.80;;;;;;5062439;28;20471;-84
2021/05/28 03:04:21;;;;;;;18.80;11.50;;;10.50;99.80;;;;;;5053094;28;21003;-84
2021/05/28 03:06:50;;;;;;;16.60;11.47;;;10.50;99.80;;;;;;5042496;28;20466;-84
2021/05/28 03:09:17;;;;;;;19.30;12.40;;;10.50;99.80;;;;;;5037127;28;20482;-84
2021/05/28 03:11:44;;;;;;;17.53;10.83;;;10.50;99.80;;;;;;5038881;28;20475;-84
2021/05/28 03:14:12;;;;;;;14.73;9.80;;;10.50;99.80;;;;;;5026919;28;20859;-84
2021/05/28 03:16:40;;;;;;;16.60;10.87;;;10.50;99.80;;;;;;5020064;28;20834;-85
2021/05/28 03:19:16;;;;;;;22.53;14.90;;;10.50;99.80;;;;;;5017820;28;20482;-85
2021/05/28 03:24:26;;;;;;;18.60;10.87;;;10.40;99.80;;;;;;5027876;28;20468;-84
2021/05/28 03:26:54;;;;;;;15.77;9.60;;;10.30;99.80;;;;;;5037588;28;20857;-84
2021/05/28 03:29:22;;;;;;;11.40;9.30;;;10.30;99.80;;;;;;5040379;28;20508;-84
2021/05/28 03:31:49;;;;;;;16.50;10.63;;;10.20;99.80;;;;;;5047958;28;20473;-84
2021/05/28 03:34:17;;;;;;;14.60;10.10;;;10.20;99.80;;;;;;5031888;28;20483;-84
2021/05/28 03:36:44;;;;;;;14.73;9.53;;;10.20;99.80;;;;;;5084797;28;20459;-84
2021/05/28 03:39:12;;;;;;;14.50;8.80;;;10.20;99.80;;;;;;5081521;28;20466;-87
2021/05/28 03:41:40;;;;;;;13.80;9.40;;;10.10;99.80;;;;;;5045345;28;20483;-85
2021/05/28 03:44:08;;;;;;;12.57;8.77;;;10.10;99.80;;;;;;5035482;28;20534;-84
2021/05/28 03:46:35;;;;;;;14.53;9.40;;;10.10;99.80;;;;;;5050720;28;20468;-84
2021/05/28 03:49:03;;;;;;;38.13;20.97;;;10.10;99.80;;;;;;5039061;28;20834;-84
2021/05/28 03:51:30;;;;;;;25.60;16.83;;;10.10;99.80;;;;;;5022587;28;20472;-84
2021/05/28 03:53:58;;;;;;;14.73;11.03;;;10.00;99.80;;;;;;5040372;28;20469;-84
2021/05/28 03:56:25;;;;;;;13.83;9.97;;;10.10;99.80;;;;;;5031374;28;20475;-84
2021/05/28 03:58:53;;;;;;;15.67;9.90;;;10.10;99.80;;;;;;5035253;28;20474;-85
2021/05/28 04:01:21;;;;;;;16.93;10.30;;;10.10;99.80;;;;;;5058249;28;20464;-84
2021/05/28 04:03:48;;;;;;;18.57;10.23;;;10.10;99.80;;;;;;5023566;28;20465;-84
2021/05/28 04:06:16;;;;;;;19.13;9.50;;;10.20;99.80;;;;;;5026347;28;20476;-88
2021/05/28 04:08:43;;;;;;;12.90;9.23;;;10.20;99.80;;;;;;5045992;28;20483;-88
2021/05/28 04:11:11;;;;;;;15.90;10.43;;;10.20;99.80;;;;;;5040042;28;20485;-88
2021/05/28 04:13:38;;;;;;;15.60;10.50;;;10.30;99.80;;;;;;5072028;28;20523;-88
2021/05/28 04:16:07;;;;;;;18.60;8.93;;;10.30;99.80;;;;;;5058836;28;20472;-88
2021/05/28 04:18:35;;;;;;;13.20;9.10;;;10.30;99.80;;;;;;5059391;28;20469;-88
2021/05/28 04:21:02;;;;;;;19.10;10.33;;;10.30;99.80;;;;;;5055275;28;20476;-88
2021/05/28 04:23:30;;;;;;;16.60;9.90;;;10.40;99.80;;;;;;5039667;28;20460;-88
2021/05/28 04:25:57;;;;;;;11.80;9.30;;;10.50;99.80;;;;;;5065015;28;20468;-88
2021/05/28 04:28:27;;;;;;;12.00;9.70;;;10.50;99.80;;;;;;5051453;28;20562;-89
2021/05/28 04:30:55;;;;;;;15.23;9.47;;;10.50;99.80;;;;;;5039472;28;21003;-88
2021/05/28 04:33:23;;;;;;;17.13;10.60;;;10.60;99.80;;;;;;5045687;28;20484;-88
2021/05/28 04:35:51;;;;;;;16.90;9.23;;;10.60;99.80;;;;;;5026568;28;20467;-88
2021/05/28 04:38:19;;;;;;;13.93;9.30;;;10.70;99.80;;;;;;5020667;28;20485;-89
2021/05/28 04:40:48;;;;;;;14.57;9.83;;;10.70;99.80;;;;;;5044218;28;20481;-88
2021/05/28 04:43:15;;;;;;;14.83;10.23;;;10.80;99.80;;;;;;5029787;28;20481;-87
2021/05/28 04:45:43;;;;;;;15.37;10.30;;;10.80;99.80;;;;;;5031567;28;20902;-87
2021/05/28 04:48:11;;;;;;;15.50;8.90;;;10.90;99.80;;;;;;5051119;28;20853;-86
2021/05/28 04:50:39;;;;;;;14.77;10.73;;;10.90;99.80;;;;;;5065098;28;20483;-87
2021/05/28 04:53:08;;;;;;;17.53;10.67;;;11.00;99.80;;;;;;5053554;28;20485;-87
2021/05/28 04:55:35;;;;;;;16.40;10.37;;;11.00;99.80;;;;;;5053269;28;20480;-87
2021/05/28 04:58:03;;;;;;;12.50;9.30;;;11.10;99.80;;;;;;5042602;28;20469;-87
2021/05/28 05:00:32;;;;;;;13.77;9.80;;;11.10;99.80;;;;;;5023795;28;20459;-87
2021/05/28 05:02:59;;;;;;;14.33;9.67;;;11.20;99.80;;;;;;5041623;28;20857;-86
2021/05/28 05:05:27;;;;;;;14.57;8.37;;;11.30;99.80;;;;;;5028945;28;20992;-85
2021/05/28 05:07:55;;;;;;;17.70;9.40;;;11.30;99.80;;;;;;5031233;28;20473;-84
2021/05/28 05:10:23;;;;;;;15.73;10.53;;;11.40;99.80;;;;;;5031535;28;20889;-88
2021/05/28 05:12:50;;;;;;;17.83;9.93;;;11.40;99.80;;;;;;5026581;28;20474;-87
2021/05/28 05:15:18;;;;;;;13.20;9.50;;;11.50;99.80;;;;;;5038475;28;20483;-87
2021/05/28 05:17:45;;;;;;;14.53;9.53;;;11.60;99.80;;;;;;5041114;28;20470;-88
2021/05/28 05:20:14;;;;;;;12.83;9.30;;;11.60;99.80;;;;;;5034804;28;20831;-88
2021/05/28 05:22:41;;;;;;;17.73;9.93;;;11.70;99.80;;;;;;5040167;28;21045;-88
2021/05/28 05:25:11;;;;;;;24.43;10.07;;;11.70;99.80;;;;;;5032825;28;20482;-88
2021/05/28 05:27:39;;;;;;;12.83;9.57;;;11.70;99.80;;;;;;5039487;28;20478;-88
2021/05/28 05:30:08;;;;;;;13.60;8.90;;;11.70;99.80;;;;;;5039048;28;20481;-88
2021/05/28 05:32:35;;;;;;;10.77;8.70;;;11.80;99.80;;;;;;5054567;28;20464;-88
2021/05/28 05:35:04;;;;;;;13.43;9.90;;;11.70;99.80;;;;;;5047828;28;20470;-88
2021/05/28 05:37:31;;;;;;;13.23;9.50;;;11.80;99.80;;;;;;5069659;28;20477;-88
2021/05/28 05:39:59;;;;;;;14.07;9.73;;;11.80;99.80;;;;;;5049460;28;20598;-88
2021/05/28 05:42:27;;;;;;;14.77;8.90;;;11.80;99.80;;;;;;5048262;28;20475;-88
2021/05/28 05:44:55;;;;;;;12.73;9.63;;;11.90;99.80;;;;;;5045726;28;20488;-88
2021/05/28 05:47:22;;;;;;;14.07;10.20;;;11.90;99.80;;;;;;5044636;28;20515;-88
2021/05/28 05:49:50;;;;;;;12.20;8.77;;;12.00;99.80;;;;;;5036973;28;20469;-88
2021/05/28 05:52:17;;;;;;;12.30;9.07;;;12.10;99.80;;;;;;5047023;28;20490;-88
2021/05/28 05:54:45;;;;;;;16.83;9.37;;;12.10;99.80;;;;;;5030333;28;20473;-88
2021/05/28 05:57:13;;;;;;;11.73;9.10;;;12.20;99.80;;;;;;5023054;28;20531;-88
2021/05/28 05:59:41;;;;;;;19.60;10.70;;;12.30;99.80;;;;;;5024326;28;20468;-88
2021/05/28 06:02:09;;;;;;;14.57;10.00;;;12.40;99.80;;;;;;5032609;28;20478;-88
2021/05/28 06:04:36;;;;;;;18.07;9.70;;;12.50;99.80;;;;;;5038297;28;20478;-88
2021/05/28 06:07:03;;;;;;;14.40;9.67;;;12.50;99.80;;;;;;5023395;28;20483;-88
2021/05/28 06:09:31;;;;;;;18.27;10.13;;;12.60;99.80;;;;;;5042475;28;20459;-88
2021/05/28 06:11:59;;;;;;;12.93;9.20;;;12.70;99.80;;;;;;5032250;28;20471;-88
2021/05/28 06:14:27;;;;;;;12.37;9.03;;;12.70;99.80;;;;;;5029225;28;21019;-88
2021/05/28 06:16:55;;;;;;;14.70;9.17;;;12.70;99.80;;;;;;5038220;28;20475;-88
2021/05/28 06:19:23;;;;;;;11.57;8.97;;;12.80;99.80;;;;;;5060981;28;20500;-87
2021/05/28 06:21:51;;;;;;;12.77;8.90;;;12.90;99.80;;;;;;5039037;28;20486;-88
2021/05/28 06:24:18;;;;;;;11.93;9.03;;;12.90;99.80;;;;;;5031213;28;20481;-88
2021/05/28 06:26:46;;;;;;;18.53;9.17;;;12.90;99.80;;;;;;5047880;28;20560;-88
2021/05/28 06:29:13;;;;;;;13.00;8.87;;;13.10;99.80;;;;;;5064023;28;20855;-88
2021/05/28 06:31:41;;;;;;;11.60;8.90;;;13.20;99.80;;;;;;5059478;28;20470;-88
2021/05/28 06:34:09;;;;;;;12.07;8.50;;;13.30;99.80;;;;;;5064983;28;20485;-88
2021/05/28 06:36:36;;;;;;;13.57;7.57;;;13.40;99.80;;;;;;5060093;28;20473;-88
2021/05/28 06:39:07;;;;;;;9.17;7.60;;;13.40;99.80;;;;;;5044823;28;20489;-88
2021/05/28 06:41:36;;;;;;;9.63;7.43;;;13.50;99.80;;;;;;5051525;28;20485;-88
2021/05/28 06:44:04;;;;;;;8.50;6.70;;;13.50;99.80;;;;;;5053084;28;20474;-88
2021/05/28 06:46:32;;;;;;;7.73;6.67;;;13.50;99.80;;;;;;5042995;28;20478;-88
2021/05/28 06:48:59;;;;;;;13.20;6.07;;;13.60;99.80;;;;;;5053526;28;20999;-88
2021/05/28 06:51:28;;;;;;;8.47;7.13;;;13.70;99.80;;;;;;5056276;28;20531;-88
2021/05/28 06:53:55;;;;;;;11.60;6.77;;;13.80;99.80;;;;;;5037927;28;20844;-88
2021/05/28 06:56:22;;;;;;;9.80;6.33;;;13.90;99.80;;;;;;5072086;28;20476;-88
2021/05/28 06:58:50;;;;;;;11.30;7.40;;;14.00;99.80;;;;;;5047005;28;20473;-88
2021/05/28 07:01:18;;;;;;;7.20;6.13;;;14.10;99.80;;;;;;5035107;28;20507;-88
2021/05/28 07:03:46;;;;;;;7.40;6.17;;;14.20;99.80;;;;;;5043840;28;20471;-88
2021/05/28 07:06:13;;;;;;;7.40;5.53;;;14.20;99.80;;;;;;5034380;28;20476;-88
2021/05/28 07:08:41;;;;;;;10.53;6.40;;;14.20;99.80;;;;;;5027842;28;20486;-88
2021/05/28 07:11:10;;;;;;;7.80;6.40;;;14.20;99.80;;;;;;5042179;28;20487;-88
2021/05/28 07:13:37;;;;;;;7.23;5.00;;;14.40;99.80;;;;;;5012472;28;20482;-88
2021/05/28 07:16:06;;;;;;;9.10;6.70;;;14.30;99.80;;;;;;5046322;28;20479;-88
2021/05/28 07:18:33;;;;;;;8.93;5.83;;;14.20;99.80;;;;;;5028403;28;21433;-88
2021/05/28 07:21:01;;;;;;;11.37;6.83;;;14.20;99.80;;;;;;5034156;28;20467;-88
2021/05/28 07:23:29;;;;;;;9.47;7.23;;;14.20;99.80;;;;;;5032911;28;20479;-88
2021/05/28 07:26:00;;;;;;;8.47;5.17;;;14.40;99.80;;;;;;5043197;28;20493;-88
2021/05/28 07:28:28;;;;;;;6.77;5.47;;;14.60;99.80;;;;;;5027501;28;20465;-88
2021/05/28 07:30:56;;;;;;;10.50;5.60;;;14.70;99.80;;;;;;5053860;28;20474;-87
2021/05/28 07:33:23;;;;;;;7.37;6.00;;;14.70;99.80;;;;;;5047885;28;20470;-88
2021/05/28 07:35:51;;;;;;;6.87;5.70;;;14.80;99.80;;;;;;5061506;28;20471;-89
2021/05/28 07:38:19;;;;;;;7.27;4.90;;;14.90;99.80;;;;;;5062336;28;21059;-88
2021/05/28 07:40:46;;;;;;;7.27;5.10;;;14.90;99.80;;;;;;5056127;28;20829;-88
2021/05/28 07:43:14;;;;;;;4.33;3.93;;;15.00;99.80;;;;;;5048761;28;20489;-89
2021/05/28 07:45:42;;;;;;;7.33;3.77;;;15.00;99.80;;;;;;5047790;28;21005;-88
2021/05/28 07:48:10;;;;;;;4.50;3.97;;;15.00;99.80;;;;;;5052230;28;20470;-88
2021/05/28 07:50:47;;;;;;;6.73;4.10;;;15.10;99.80;;;;;;5047875;28;20855;-88
2021/05/28 07:53:15;;;;;;;4.80;4.30;;;15.20;99.80;;;;;;5057015;28;20474;-88
2021/05/28 07:55:43;;;;;;;5.57;5.07;;;15.30;99.80;;;;;;5051229;28;20477;-88
2021/05/28 07:58:11;;;;;;;4.60;4.17;;;15.30;99.80;;;;;;5041984;28;20529;-87
2021/05/28 08:00:39;;;;;;;6.57;4.70;;;15.30;99.80;;;;;;5031400;28;20458;-88
2021/05/28 08:03:07;;;;;;;5.23;4.73;;;15.40;99.80;;;;;;5044444;28;20483;-88
2021/05/28 08:05:35;;;;;;;5.70;4.80;;;15.30;99.80;;;;;;5046249;28;20815;-87
2021/05/28 08:08:03;;;;;;;11.13;4.50;;;15.30;99.80;;;;;;5041854;28;20860;-88
2021/05/28 08:10:31;;;;;;;4.73;3.67;;;15.30;99.80;;;;;;5042098;28;20514;-88
2021/05/28 08:12:58;;;;;;;5.40;3.93;;;15.40;99.80;;;;;;5026793;28;20479;-88
2021/05/28 08:15:26;;;;;;;4.17;3.77;;;15.50;99.80;;;;;;5035490;28;20459;-87
2021/05/28 08:20:45;;;;;;;6.33;4.07;;;15.50;99.80;;;;;;5052422;28;20471;-87
2021/05/28 08:23:13;;;;;;;12.03;3.83;;;15.40;99.80;;;;;;5009774;28;20462;-88
2021/05/28 08:25:40;;;;;;;4.23;3.83;;;15.60;99.80;;;;;;5027540;28;20893;-87
2021/05/28 08:28:08;;;;;;;5.80;4.20;;;15.90;99.70;;;;;;5017910;28;20562;-88
2021/05/28 08:30:35;;;;;;;5.10;3.40;;;16.80;96.80;;;;;;5046167;28;20949;-89
2021/05/28 08:33:07;;;;;;;3.43;2.70;;;16.80;96.80;;;;;;5033964;28;21032;-89
2021/05/28 08:35:34;;;;;;;4.13;2.97;;;16.70;91.30;;;;;;5019054;28;20490;-88
2021/05/28 08:38:02;;;;;;;7.30;3.37;;;16.50;93.90;;;;;;5029183;28;20489;-89
2021/05/28 08:40:32;;;;;;;4.17;2.90;;;16.30;96.20;;;;;;5033158;28;20488;-89
2021/05/28 08:43:00;;;;;;;5.03;3.37;;;16.10;96.00;;;;;;5020485;28;20563;-88
2021/05/28 08:45:34;;;;;;;4.60;3.83;;;16.10;98.20;;;;;;5023085;28;20476;-87
2021/05/28 08:48:02;;;;;;;4.73;3.27;;;16.10;96.50;;;;;;5039568;28;20467;-88
2021/05/28 08:50:30;;;;;;;4.43;3.13;;;16.10;96.80;;;;;;5024806;28;20462;-89
2021/05/28 08:53:01;;;;;;;3.73;3.17;;;16.10;97.80;;;;;;5033312;28;20479;-88
2021/05/28 08:55:29;;;;;;;4.27;3.30;;;16.10;95.80;;;;;;5034923;28;20495;-88
2021/05/28 08:57:56;;;;;;;4.60;2.57;;;16.00;96.10;;;;;;5037251;28;20466;-88
2021/05/28 09:00:25;;;;;;;2.77;2.57;;;15.80;97.00;;;;;;5020313;28;20504;-89
2021/05/28 09:02:52;;;;;;;3.23;2.93;;;15.70;97.40;;;;;;5037853;28;20471;-89
2021/05/28 09:05:22;;;;;;;3.07;2.87;;;15.60;98.70;;;;;;5045591;28;20501;-88
2021/05/28 09:07:55;;;;;;;5.10;2.60;;;15.60;99.40;;;;;;5042683;28;21019;-89
2021/05/28 09:10:29;;;;;;;3.30;2.67;;;15.70;99.20;;;;;;5047009;28;20467;-88
2021/05/28 09:13:07;;;;;;;2.43;2.23;;;15.80;97.60;;;;;;5058757;28;20479;-88
2021/05/28 09:15:35;;;;;;;2.93;2.73;;;15.90;98.50;;;;;;5046275;28;20878;-88
2021/05/28 09:18:03;;;;;;;2.80;2.57;;;16.00;97.50;;;;;;5059760;28;21364;-89
2021/05/28 09:20:31;;;;;;;2.70;2.50;;;16.20;98.40;;;;;;5065417;28;20463;-89
2021/05/28 09:23:15;;;;;;;3.37;2.77;;;16.40;97.30;;;;;;5058769;28;20478;-89
2021/05/28 09:25:58;;;;;;;2.73;2.53;;;16.30;93.80;;;;;;5048587;28;20474;-88
2021/05/28 09:28:26;;;;;;;4.40;2.40;;;16.10;95.40;;;;;;5051511;28;20586;-87
2021/05/28 09:30:58;;;;;;;6.63;2.80;;;16.20;97.00;;;;;;5058818;28;21000;-89
2021/05/28 09:33:27;;;;;;;3.57;2.20;;;16.70;96.60;;;;;;5062253;28;20522;-89
2021/05/28 09:36:06;;;;;;;2.20;2.10;;;17.10;93.50;;;;;;5054970;28;20557;-88
2021/05/28 09:38:35;;;;;;;4.13;2.40;;;17.80;90.00;;;;;;5030416;28;20486;-88
2021/05/28 09:41:03;;;;;;;3.10;2.17;;;17.80;90.30;;;;;;5042714;28;20492;-89
2021/05/28 09:43:32;;;;;;;2.37;1.90;;;;;;;;;;5054703;28;20846;-88
2021/05/28 09:46:00;;;;;;;2.53;2.17;;;18.30;90.40;;;;;;5069067;28;20471;-89
2021/05/28 09:48:30;;;;;;;3.13;2.07;;;17.80;87.60;;;;;;5060218;28;21028;-88
2021/05/28 09:51:03;;;;;;;2.53;2.43;;;17.90;87.50;;;;;;5061410;28;20504;-86
2021/05/28 09:53:36;;;;;;;3.57;2.00;;;17.70;90.70;;;;;;5059255;28;20489;-88
2021/05/28 09:56:23;;;;;;;4.13;2.40;;;17.70;87.40;;;;;;5069788;27;20549;-87
2021/05/28 09:58:55;;;;;;;2.73;2.53;;;17.70;88.50;;;;;;5066475;28;20617;-88
2021/05/28 10:01:22;;;;;;;3.20;2.30;;;17.60;89.50;;;;;;5035330;28;20489;-87
2021/05/28 10:04:05;;;;;;;2.60;2.30;;;17.60;89.50;;;;;;5058859;28;20474;-88
2021/05/28 10:06:35;;;;;;;3.37;2.13;;;17.60;89.20;;;;;;5041484;28;20480;-87
2021/05/28 10:09:06;;;;;;;3.57;2.10;;;17.70;91.40;;;;;;5042143;28;21179;-88
2021/05/28 10:11:35;;;;;;;1.80;1.57;;;17.80;88.40;;;;;;5056779;28;20488;-88
2021/05/28 10:14:04;;;;;;;2.13;2.03;;;17.80;88.30;;;;;;5052810;28;20562;-88
2021/05/28 10:16:35;;;;;;;1.97;1.77;;;17.80;89.80;;;;;;5042095;28;20575;-87
2021/05/28 10:19:04;;;;;;;3.70;1.73;;;18.00;88.20;;;;;;5049776;28;20478;-88
2021/05/28 10:21:33;;;;;;;2.50;2.30;;;;;;;;;;5034584;28;20482;-88
2021/05/28 10:24:00;;;;;;;3.43;1.87;;;;;;;;;;5032889;28;20569;-88
2021/05/28 10:26:31;;;;;;;1.87;1.60;;;;;;;;;;5035649;28;20553;-87
2021/05/28 10:28:59;;;;;;;1.20;1.10;;;;;;;;;;5016660;28;20478;-87
2021/05/28 10:31:45;;;;;;;1.20;1.10;;;;;;;;;;5049945;28;20473;-88
2021/05/28 10:34:13;;;;;;;1.60;1.10;;;;;;;;;;5069049;28;20991;-88
2021/05/28 10:36:42;;;;;;;1.10;1.00;;;;;;;;;;5057031;28;20464;-89
2021/05/28 10:39:10;;;;;;;2.23;1.10;;;;;;;;;;5048882;28;20475;-88
2021/05/28 10:41:43;;;;;;;1.93;1.83;;;;;;;;;;5040524;28;20472;-88
2021/05/28 10:44:13;;;;;;;1.60;1.50;;;;;;;;;;5052487;28;20553;-88
2021/05/28 10:46:52;;;;;;;1.50;1.40;;;;;;;;;;5064214;28;20522;-89
2021/05/28 10:49:20;;;;;;;1.97;1.57;;;;;;;;;;5045400;28;20477;-88
2021/05/28 10:52:01;;;;;;;1.60;1.50;;;;;;;;;;5015247;28;21025;-87
2021/05/28 10:54:31;;;;;;;2.33;1.60;;;;;;;;;;5034370;28;20468;-87
2021/05/28 10:57:13;;;;;;;2.50;1.43;;;;;;;;;;5041722;28;21132;-88
2021/05/28 10:59:45;;;;;;;2.33;1.80;;;;;;;;;;5036824;28;20488;-88
2021/05/28 11:02:13;;;;;;;1.80;1.70;;;;;;;;;;5041721;28;21049;-88
2021/05/28 11:04:56;;;;;;;1.87;1.43;;;;;;;;;;5057150;28;21012;-88
2021/05/28 11:07:33;;;;;;;3.67;1.60;;;;;;;;;;5058840;28;20984;-88
2021/05/28 11:10:16;;;;;;;2.00;1.30;;;;;;;;;;5035403;28;20849;-88
2021/05/28 11:12:44;;;;;;;3.40;2.03;;;;;;;;;;5042645;28;20473;-87
2021/05/28 11:15:14;;;;;;;1.67;1.57;;;;;;;;;;5030945;28;20468;-88
2021/05/28 11:17:51;;;;;;;1.70;1.60;;;;;;;;;;5038004;28;20484;-88
2021/05/28 11:20:27;;;;;;;5.00;1.77;;;;;;;;;;5032978;28;20477;-88
2021/05/28 11:22:56;;;;;;;1.70;1.60;;;;;;;;;;5056485;28;20558;-88
2021/05/28 11:25:28;;;;;;;1.90;1.70;;;;;;;;;;5025044;28;20494;-88
2021/05/28 11:28:03;;;;;;;1.67;1.50;;;;;;;;;;5041839;28;20475;-88
2021/05/28 11:30:48;;;;;;;2.33;1.83;;;;;;;;;;5038667;28;20478;-88
2021/05/28 11:33:35;;;;;;;4.20;1.70;;;;;;;;;;5051490;28;20485;-87
2021/05/28 11:36:18;;;;;;;2.30;2.10;;;;;;;;;;5049994;28;20476;-87
2021/05/28 11:38:54;;;;;;;1.87;1.77;;;;;;;;;;5058593;28;20521;-88
2021/05/28 11:41:21;;;;;;;3.93;1.97;;;;;;;;;;5053130;28;20461;-88
2021/05/28 11:43:49;;;;;;;1.60;1.50;;;;;;;;;;5052427;28;20515;-88
2021/05/28 11:46:17;;;;;;;2.20;2.00;;;;;;;;;;5037417;28;20483;-88
2021/05/28 11:48:46;;;;;;;1.63;1.53;;;;;;;;;;5049782;28;20834;-89
2021/05/28 11:51:17;;;;;;;1.83;1.73;;;;;;;;;;5048401;28;20499;-88
2021/05/28 11:53:45;;;;;;;1.80;1.70;;;;;;;;;;5031203;28;20478;-88
2021/05/28 11:56:14;;;;;;;1.67;1.43;;;;;;;;;;5020130;28;20467;-88
2021/05/28 11:58:50;;;;;;;1.50;1.40;;;;;;;;;;5030202;28;20587;-88
2021/05/28 12:01:20;;;;;;;2.03;1.83;;;;;;;;;;5014497;28;20486;-88
2021/05/28 12:03:49;;;;;;;2.80;2.07;;;;;;;;;;5040986;28;21043;-89
2021/05/28 12:06:17;;;;;;;1.73;1.47;;;;;;;;;;5035941;28;21034;-88
2021/05/28 12:08:46;;;;;;;1.70;1.60;;;;;;;;;;5035881;28;20481;-88
2021/05/28 12:11:14;;;;;;;1.97;1.87;;;;;;;;;;5055315;28;20471;-88
2021/05/28 12:13:42;;;;;;;1.90;1.77;;;;;;;;;;5057050;28;20528;-89
2021/05/28 12:16:11;;;;;;;1.77;1.60;;;;;;;;;;5058699;28;20468;-88
2021/05/28 12:18:42;;;;;;;3.77;1.37;;;;;;;;;;5056543;28;21009;-89
2021/05/28 12:21:10;;;;;;;1.60;1.50;;;;;;;;;;5041525;28;20844;-89
2021/05/28 12:23:39;;;;;;;1.40;1.17;;;;;;;;;;5024320;28;20478;-89
2021/05/28 12:26:08;;;;;;;1.23;1.10;;;;;;;;;;5047937;28;20490;-89
2021/05/28 12:28:38;;;;;;;1.40;1.30;;;;;;;;;;5039028;28;20474;-89
2021/05/28 12:31:18;;;;;;;2.20;1.37;;;;;;;;;;5038215;28;20478;-89
2021/05/28 12:33:50;;;;;;;1.20;1.10;;;;;;;;;;5014455;28;20496;-88
2021/05/28 12:36:18;;;;;;;1.97;1.50;;;;;;;;;;5029421;28;20483;-88
2021/05/28 12:38:46;;;;;;;1.67;1.57;;;;;;;;;;5038504;28;21013;-88
2021/05/28 12:41:16;;;;;;;3.00;1.40;;;;;;;;;;5044548;28;20505;-88
2021/05/28 12:43:45;;;;;;;1.47;1.37;;;;;;;;;;5043530;28;20474;-88
2021/05/28 12:46:19;;;;;;;1.90;1.80;;;;;;;;;;5024350;28;20479;-88
2021/05/28 12:48:49;;;;;;;2.60;1.60;;;;;;;;;;5046874;28;20547;-88
2021/05/28 12:51:17;;;;;;;1.70;1.60;;;;;;;;;;5038777;28;21027;-89
2021/05/28 12:53:46;;;;;;;1.53;1.30;;;;;;;;;;5043531;28;20905;-88
2021/05/28 12:56:21;;;;;;;2.20;1.70;;;;;;;;;;5053066;28;20482;-88
2021/05/28 12:58:50;;;;;;;2.30;2.13;;;;;;;;;;5043834;28;20488;-88
2021/05/28 13:01:19;;;;;;;2.70;1.57;;;;;;;;;;5041277;28;20484;-89
2021/05/28 13:03:49;;;;;;;1.77;1.67;;;;;;;;;;5051983;28;20567;-88
2021/05/28 13:06:28;;;;;;;1.80;1.60;;;;;;;;;;5058459;28;20464;-88
2021/05/28 13:08:57;;;;;;;1.73;1.63;;;;;;;;;;5052969;28;20476;-88
2021/05/28 13:11:25;;;;;;;2.23;1.37;;;;;;;;;;5036862;28;20471;-88
2021/05/28 13:13:55;;;;;;;1.53;1.43;;;;;;;;;;5021642;28;20477;-88
2021/05/28 13:16:27;;;;;;;1.50;1.40;;;;;;;;;;5035992;28;21120;-89
2021/05/28 13:18:55;;;;;;;1.40;1.30;;;;;;;;;;5057659;28;20952;-88